Time;durP1;ratioP1;P1;durP2;ratioP2;P2;SDS_P1;SDS_P2;PMS_P1;PMS_P2;Temp;Humidity;BMP_temperature;BMP_pressure;BME280_temperature;BME280_humidity;BME280_pressure;Samples;Min_cycle;Max_cycle;Signal;HPM_P1;HPM_P2
2021/12/26 00:02:06;;;;;;;;;25.25;23.25;;;;;11.69;73.71;100207.13;5052557;28;49906;-74
2021/12/26 00:04:33;;;;;;;;;21.00;19.00;;;;;11.70;73.58;100204.50;5052724;28;49787;-75
2021/12/26 00:06:58;;;;;;;;;25.50;23.50;;;;;11.60;73.74;100186.03;5053132;28;50342;-71
2021/12/26 00:09:24;;;;;;;;;29.50;26.50;;;;;11.72;73.47;100193.97;5051889;28;49920;-75
2021/12/26 00:11:49;;;;;;;;;28.25;26.25;;;;;11.44;73.69;100141.19;5051971;28;49745;-76
2021/12/26 00:14:15;;;;;;;;;26.75;22.00;;;;;11.60;73.80;100186.91;5052832;28;49875;-71
2021/12/26 00:16:42;;;;;;;;;24.25;22.00;;;;;11.69;73.92;100186.97;5052680;28;49688;-72
2021/12/26 00:19:07;;;;;;;;;27.00;26.00;;;;;11.63;73.62;100171.13;5051605;28;49730;-72
2021/12/26 00:21:33;;;;;;;;;28.25;23.00;;;;;11.68;73.57;100189.59;5039309;28;50371;-75
2021/12/26 00:23:59;;;;;;;;;26.25;24.25;;;;;11.70;73.67;100183.47;5052501;28;49787;-74
2021/12/26 00:26:25;;;;;;;;;27.75;25.25;;;;;11.70;73.67;100180.84;5050776;28;49726;-74
2021/12/26 00:28:50;;;;;;;;;23.50;22.25;;;;;11.51;73.47;100152.66;5052279;28;49844;-73
2021/12/26 00:31:17;;;;;;;;;23.00;22.75;;;;;11.69;73.64;100183.47;5052193;28;50395;-77
2021/12/26 00:33:44;;;;;;;;;26.25;25.00;;;;;11.70;73.14;100182.59;5051137;28;49858;-73
2021/12/26 00:36:10;;;;;;;;;25.25;21.75;;;;;11.55;73.23;100164.06;5052148;28;50041;-75
2021/12/26 00:38:36;;;;;;;;;26.25;26.25;;;;;11.49;73.33;100133.38;5052571;28;49724;-75
2021/12/26 00:41:04;;;;;;;;;25.50;25.25;;;;;11.58;73.12;100146.56;5052011;28;49770;-77
2021/12/26 00:43:30;;;;;;;;;24.75;22.50;;;;;11.43;73.02;100121.06;5051982;28;49850;-76
2021/12/26 00:45:56;;;;;;;;;24.25;24.25;;;;;11.72;73.02;100167.69;5050679;28;49858;-75
2021/12/26 00:48:21;;;;;;;;;23.25;21.25;;;;;11.62;73.07;100153.59;5051178;28;49809;-76
2021/12/26 00:50:47;;;;;;;;;29.50;28.50;;;;;11.70;73.34;100164.19;5051948;28;50917;-70
2021/12/26 00:53:13;;;;;;;;;32.00;26.50;;;;;11.59;73.40;100136.94;5051881;28;49807;-76
2021/12/26 00:55:39;;;;;;;;;28.00;26.00;;;;;11.51;73.16;100138.63;5052022;28;49889;-74
2021/12/26 00:58:05;;;;;;;;;30.75;28.25;;;;;11.71;73.49;100169.44;5052103;28;49946;-71
2021/12/26 01:00:34;;;;;;;;;28.25;26.25;;;;;11.35;73.45;100116.59;5051812;28;49954;-73
2021/12/26 01:03:02;;;;;;;;;29.00;23.75;;;;;11.65;73.24;100169.38;5051933;28;49872;-71
2021/12/26 01:05:28;;;;;;;;;31.50;26.75;;;;;11.62;73.31;100157.97;5051917;28;49751;-71
2021/12/26 01:07:59;;;;;;;;;22.00;21.00;;;;;11.70;73.26;100164.19;5051936;28;49739;-77
2021/12/26 01:10:36;;;;;;;;;31.50;28.25;;;;;11.64;72.99;100162.38;5051661;28;49839;-71
2021/12/26 01:13:14;;;;;;;;;24.00;21.25;;;;;11.45;73.22;100121.06;5051604;28;49831;-72
2021/12/26 01:15:40;;;;;;;;;24.25;20.75;;;;;11.71;72.83;100169.44;5051930;28;49832;-71
2021/12/26 01:18:06;;;;;;;;;20.25;20.25;;;;;11.73;73.14;100170.31;5051905;28;49914;-76
2021/12/26 01:23:14;;;;;;;;;27.00;24.25;;;;;11.68;73.26;100158.91;5051519;28;49821;-74
2021/12/26 01:25:39;;;;;;;;;29.25;25.25;;;;;11.66;72.92;100160.63;5051495;28;49819;-74
2021/12/26 01:28:05;;;;;;;;;23.50;22.00;;;;;11.74;73.70;100172.09;5051454;28;49990;-75
2021/12/26 01:30:31;;;;;;;;;26.00;25.75;;;;;11.78;73.27;100173.00;5051135;28;50615;-75
2021/12/26 01:32:57;;;;;;;;;33.50;29.25;;;;;11.52;73.37;100125.50;5051424;28;49765;-74
2021/12/26 01:35:22;;;;;;;;;31.25;29.75;;;;;11.72;73.15;100147.53;5051523;28;49757;-69
2021/12/26 01:37:48;;;;;;;;;30.50;29.00;;;;;10.15;72.46;99885.50;5051561;28;49522;-72
2021/12/26 01:40:13;;;;;;;;;29.50;27.75;;;;;11.82;73.25;100172.16;5051047;28;50266;-70
2021/12/26 01:42:39;;;;;;;;;27.25;24.75;;;;;11.83;72.96;100170.41;5051010;28;49709;-72
2021/12/26 01:45:07;;;;;;;;;27.25;27.25;;;;;11.84;72.77;100161.66;5049823;28;49868;-70
2021/12/26 01:47:33;;;;;;;;;35.25;31.75;;;;;11.80;72.89;100154.63;5051237;28;49788;-73
2021/12/26 01:49:58;;;;;;;;;28.00;26.25;;;;;11.86;72.68;100158.16;5051045;28;50586;-74
2021/12/26 01:52:23;;;;;;;;;27.25;24.50;;;;;11.58;72.48;100119.38;5051104;28;49743;-72
2021/12/26 01:55:00;;;;;;;;;26.50;24.75;;;;;11.59;72.54;100119.41;5051191;28;49574;-75
2021/12/26 01:57:26;;;;;;;;;29.00;26.75;;;;;11.80;72.79;100155.50;5051048;28;50669;-70
2021/12/26 01:59:52;;;;;;;;;31.75;28.25;;;;;11.76;72.21;100148.41;5050653;28;49818;-70
2021/12/26 02:02:17;;;;;;;;;23.50;22.75;;;;;11.74;72.39;100169.44;5050826;28;49617;-70
2021/12/26 02:04:43;;;;;;;;;30.25;22.75;;;;;11.53;72.81;100132.50;5051146;28;49786;-71
2021/12/26 02:07:10;;;;;;;;;30.50;30.50;;;;;11.71;72.45;100164.19;5051815;28;49924;-71
2021/12/26 02:09:36;;;;;;;;;24.75;22.75;;;;;11.67;73.07;100161.50;5051011;28;50483;-70
2021/12/26 02:12:03;;;;;;;;;27.25;23.00;;;;;11.10;72.72;100079.66;5051158;28;49739;-70
2021/12/26 02:14:28;;;;;;;;;21.75;20.75;;;;;11.54;72.75;100128.13;5049870;28;49739;-71
2021/12/26 02:16:54;;;;;;;;;30.00;25.75;;;;;11.75;72.48;100168.56;5051309;28;49733;-70
2021/12/26 02:19:19;;;;;;;;;25.50;23.25;;;;;11.28;72.67;100089.41;5050832;28;50331;-73
2021/12/26 02:29:29;;;;;;;;;30.50;28.75;;;;;11.34;72.58;100112.22;5050091;28;49725;-73
2021/12/26 02:31:54;;;;;;;;;22.00;18.25;;;;;11.71;73.12;100168.56;5049202;28;49713;-70
2021/12/26 02:34:20;;;;;;;;;23.00;21.75;;;;;11.69;73.32;100155.41;5050632;28;49654;-73
2021/12/26 02:36:46;;;;;;;;;29.50;26.50;;;;;11.76;73.14;100165.06;5050638;28;49832;-70
2021/12/26 02:39:11;;;;;;;;;24.00;23.00;;;;;11.72;73.20;100158.06;5050352;28;50578;-70
2021/12/26 02:41:37;;;;;;;;;28.50;25.25;;;;;11.78;73.10;100157.22;5050351;28;50091;-71
2021/12/26 02:44:03;;;;;;;;;25.75;24.75;;;;;11.76;73.25;100154.56;5050519;28;49776;-70
2021/12/26 02:46:28;;;;;;;;;19.25;19.25;;;;;11.22;73.32;100068.34;5050408;28;49702;-69
2021/12/26 02:48:55;;;;;;;;;27.00;23.75;;;;;11.65;73.44;100136.97;5050125;28;50407;-70
2021/12/26 02:51:21;;;;;;;;;28.25;26.50;;;;;11.78;73.50;100151.97;5050256;28;49699;-72
2021/12/26 02:53:48;;;;;;;;;29.25;28.25;;;;;11.53;73.11;100105.34;5050054;28;49780;-71
2021/12/26 02:56:13;;;;;;;;;25.75;24.75;;;;;11.78;73.45;100151.09;5049928;28;49820;-75
2021/12/26 02:58:39;;;;;;;;;28.00;26.00;;;;;11.42;73.90;100103.53;5049887;28;50415;-74
2021/12/26 03:01:09;;;;;;;;;25.75;22.75;;;;;11.72;73.15;100150.16;5050175;28;49622;-70
2021/12/26 03:03:35;;;;;;;;;24.25;20.75;;;;;11.72;73.53;100151.91;5037955;28;49719;-70
2021/12/26 03:06:09;;;;;;;;;25.25;20.50;;;;;11.71;73.68;100145.78;5050303;28;49693;-71
2021/12/26 03:08:34;;;;;;;;;27.75;25.75;;;;;11.50;73.10;100105.34;5038371;28;50724;-70
2021/12/26 03:11:00;;;;;;;;;24.75;21.75;;;;;11.74;73.60;100145.78;5050383;28;49814;-71
2021/12/26 03:13:26;;;;;;;;;25.00;22.50;;;;;11.56;73.59;100123.75;5053471;28;49121;-70
2021/12/26 03:15:52;;;;;;;;;26.00;25.00;;;;;11.67;73.18;100143.09;5040701;28;49582;-73
2021/12/26 03:18:17;;;;;;;;;24.25;24.00;;;;;11.60;73.53;100134.31;5053396;28;50648;-73
2021/12/26 03:20:46;;;;;;;;;25.75;25.50;;;;;11.30;73.75;100076.28;5053522;28;49779;-72
2021/12/26 03:23:15;;;;;;;;;23.00;21.25;;;;;11.27;73.56;100085.00;5053489;28;49642;-74
2021/12/26 03:25:40;;;;;;;;;24.00;20.75;;;;;11.67;74.03;100143.09;5053850;28;50089;-71
2021/12/26 03:28:07;;;;;;;;;27.00;22.00;;;;;11.70;73.76;100143.16;5052799;28;50465;-70
2021/12/26 03:30:33;;;;;;;;;23.25;20.50;;;;;11.47;73.64;100106.16;5053046;28;49754;-72
2021/12/26 03:33:01;;;;;;;;;19.00;18.75;;;;;11.61;73.94;100130.81;5053265;28;49989;-70
2021/12/26 03:35:28;;;;;;;;;22.25;22.00;;;;;11.31;73.97;100088.56;5053685;28;49914;-70
2021/12/26 03:37:54;;;;;;;;;22.75;19.50;;;;;11.73;73.81;100158.94;5053545;28;51071;-70
2021/12/26 03:40:20;;;;;;;;;26.25;24.50;;;;;11.65;73.63;100155.38;5053380;28;49824;-73
2021/12/26 03:42:45;;;;;;;;;25.75;23.75;;;;;11.67;73.55;100151.88;5052944;28;49857;-70
2021/12/26 03:45:10;;;;;;;;;24.25;22.75;;;;;11.62;73.71;100147.47;5052996;28;49767;-73
2021/12/26 03:47:37;;;;;;;;;28.25;24.25;;;;;11.66;74.21;100147.47;5052733;28;51086;-72
2021/12/26 03:50:09;;;;;;;;;26.25;21.75;;;;;11.69;73.82;100146.66;5052958;28;49710;-70
2021/12/26 03:52:35;;;;;;;;;23.50;20.50;;;;;11.51;73.79;100114.97;5052806;28;49751;-70
2021/12/26 03:55:00;;;;;;;;;22.25;20.00;;;;;11.50;73.69;100114.09;5053138;28;49701;-72
2021/12/26 03:57:26;;;;;;;;;28.50;26.75;;;;;11.67;73.50;100143.97;5052392;28;50769;-70
2021/12/26 03:59:51;;;;;;;;;28.75;28.75;;;;;11.62;73.56;100139.56;5053356;28;49939;-71
2021/12/26 04:02:17;;;;;;;;;27.00;26.25;;;;;11.39;73.58;100108.78;5053043;28;49732;-69
2021/12/26 04:04:44;;;;;;;;;25.50;22.75;;;;;11.51;74.11;100136.00;5052892;28;50217;-70
2021/12/26 04:07:10;;;;;;;;;24.75;22.75;;;;;11.50;73.42;100129.88;5052369;28;50548;-75
2021/12/26 04:09:36;;;;;;;;;25.00;25.00;;;;;11.55;73.90;100138.66;5052734;28;49728;-69
2021/12/26 04:12:01;;;;;;;;;24.50;21.25;;;;;11.50;73.91;100127.25;5052539;28;50302;-70
2021/12/26 04:14:27;;;;;;;;;26.25;25.50;;;;;11.38;73.72;100099.09;5051479;28;50156;-71
2021/12/26 04:16:52;;;;;;;;;23.75;22.75;;;;;11.37;73.52;100109.59;5052580;28;50623;-70
2021/12/26 04:19:18;;;;;;;;;24.25;22.50;;;;;10.98;73.56;100032.25;5052378;28;49574;-72
2021/12/26 04:21:43;;;;;;;;;29.50;25.50;;;;;11.46;74.10;100121.06;5052414;28;49629;-74
2021/12/26 04:24:08;;;;;;;;;27.75;27.75;;;;;11.49;74.21;100116.72;5050229;28;49978;-71
2021/12/26 04:26:34;;;;;;;;;19.25;19.25;;;;;11.53;74.08;100118.50;5052054;28;50511;-73
2021/12/26 04:28:59;;;;;;;;;21.00;19.25;;;;;11.22;74.12;100068.34;5052246;28;49769;-71
2021/12/26 04:31:25;;;;;;;;;25.25;22.00;;;;;11.57;73.97;100117.63;5052471;28;49685;-70
2021/12/26 04:33:50;;;;;;;;;25.00;21.00;;;;;11.29;73.51;100070.16;5052965;28;49998;-73
2021/12/26 04:36:17;;;;;;;;;27.50;25.25;;;;;11.56;74.06;100116.75;5050899;28;50357;-72
2021/12/26 04:38:42;;;;;;;;;27.75;25.75;;;;;11.57;73.66;100122.88;5052170;28;49675;-73
2021/12/26 04:41:08;;;;;;;;;27.25;25.00;;;;;11.32;74.26;100087.69;5039255;28;49790;-69
2021/12/26 04:43:36;;;;;;;;;24.75;22.25;;;;;11.44;74.06;100101.78;5047320;28;50019;-69
2021/12/26 04:46:06;;;;;;;;;25.75;21.50;;;;;11.39;74.00;100086.88;5052311;28;50297;-72
2021/12/26 04:48:33;;;;;;;;;24.50;21.50;;;;;11.35;74.23;100082.44;5040274;28;49641;-75
2021/12/26 04:51:00;;;;;;;;;26.75;25.00;;;;;11.53;74.27;100113.22;5045914;28;49828;-70
2021/12/26 04:53:25;;;;;;;;;22.75;21.50;;;;;11.41;74.08;100099.16;5052629;28;49919;-70
2021/12/26 04:55:50;;;;;;;;;24.75;24.25;;;;;11.47;74.16;100098.28;5050581;28;49957;-71
2021/12/26 04:58:16;;;;;;;;;23.75;23.25;;;;;11.56;74.35;100103.59;5050791;28;49761;-75
2021/12/26 05:00:41;;;;;;;;;24.25;22.25;;;;;11.56;74.03;100102.72;5051216;28;49996;-71
2021/12/26 05:03:07;;;;;;;;;26.25;25.25;;;;;11.54;73.93;100100.09;5050679;28;49858;-69
2021/12/26 05:05:33;;;;;;;;;25.00;25.00;;;;;10.97;73.86;100009.50;5050064;28;49992;-70
2021/12/26 05:07:59;;;;;;;;;23.25;20.75;;;;;11.44;73.88;100077.25;5050643;28;49885;-70
2021/12/26 05:10:27;;;;;;;;;25.75;25.75;;;;;11.54;74.07;100089.56;5050808;28;50206;-75
2021/12/26 05:12:53;;;;;;;;;26.25;22.50;;;;;11.54;74.15;100093.97;5051562;28;49839;-74
2021/12/26 05:15:21;;;;;;;;;18.50;18.00;;;;;11.50;74.07;100086.94;5050309;28;51313;-75
2021/12/26 05:17:47;;;;;;;;;26.75;25.25;;;;;11.55;74.25;100099.22;5051361;28;49671;-70
2021/12/26 05:20:13;;;;;;;;;22.75;22.75;;;;;11.49;74.46;100090.44;5051860;28;49930;-75
2021/12/26 05:22:38;;;;;;;;;19.50;18.00;;;;;11.30;74.65;100057.91;5052203;28;49892;-70
2021/12/26 05:25:06;;;;;;;;;25.25;23.75;;;;;11.39;74.38;100065.84;5051381;28;50540;-70
2021/12/26 05:27:32;;;;;;;;;19.50;19.50;;;;;11.23;74.16;100049.09;5051252;28;49948;-75
2021/12/26 05:29:58;;;;;;;;;25.00;23.50;;;;;11.42;74.45;100085.13;5051862;28;49977;-70
2021/12/26 05:32:23;;;;;;;;;25.50;22.75;;;;;11.41;73.91;100085.13;5051356;28;49655;-75
2021/12/26 05:34:49;;;;;;;;;25.25;23.25;;;;;11.50;74.54;100095.69;5050686;28;50497;-74
2021/12/26 05:37:14;;;;;;;;;28.25;25.75;;;;;11.53;74.11;100100.09;5051239;28;49748;-73
2021/12/26 05:39:39;;;;;;;;;24.25;22.00;;;;;11.22;74.55;100042.09;5051534;28;49827;-70
2021/12/26 05:42:05;;;;;;;;;25.50;25.50;;;;;11.43;74.67;100073.75;5051300;28;49822;-71
2021/12/26 05:44:31;;;;;;;;;22.25;20.50;;;;;11.53;74.54;100089.56;5050998;28;49923;-72
2021/12/26 05:46:56;;;;;;;;;23.00;21.75;;;;;11.54;74.10;100086.94;5051126;28;49943;-74
2021/12/26 05:49:21;;;;;;;;;25.50;25.00;;;;;11.38;74.54;100067.56;5051130;28;49820;-71
2021/12/26 05:51:47;;;;;;;;;23.25;23.25;;;;;11.51;74.55;100092.19;5051377;28;49643;-74
2021/12/26 05:54:12;;;;;;;;;24.50;23.00;;;;;11.37;74.47;100072.81;5050759;28;50313;-75
2021/12/26 05:56:37;;;;;;;;;23.50;22.50;;;;;11.53;74.24;100094.81;5049494;28;49715;-73
2021/12/26 05:59:03;;;;;;;;;26.25;23.25;;;;;11.30;74.38;100056.16;5051102;28;49800;-70
2021/12/26 06:01:29;;;;;;;;;28.50;20.50;;;;;11.32;74.22;100059.66;5051065;28;49597;-70
2021/12/26 06:03:54;;;;;;;;;23.75;22.25;;;;;11.48;74.46;100081.63;5050940;28;50109;-70
2021/12/26 06:06:19;;;;;;;;;23.00;19.00;;;;;10.90;73.81;99989.31;5050922;28;49880;-70
2021/12/26 06:08:45;;;;;;;;;21.50;21.00;;;;;11.54;74.38;100092.22;5051015;28;49877;-73
2021/12/26 06:11:10;;;;;;;;;23.50;20.00;;;;;11.50;74.34;100074.66;5050738;28;49950;-75
2021/12/26 06:13:36;;;;;;;;;24.00;21.25;;;;;11.59;74.41;100079.09;5050699;28;49720;-72
2021/12/26 06:16:01;;;;;;;;;24.00;20.75;;;;;11.10;73.75;100013.09;5050638;28;49869;-75
2021/12/26 06:18:27;;;;;;;;;22.00;20.75;;;;;11.56;74.30;100093.09;5050948;28;50063;-72
2021/12/26 06:20:52;;;;;;;;;23.25;21.00;;;;;11.42;74.10;100074.63;5051055;28;49845;-76
2021/12/26 06:23:17;;;;;;;;;19.50;19.50;;;;;11.52;74.31;100070.28;5050857;28;49787;-71
2021/12/26 06:25:43;;;;;;;;;24.75;21.50;;;;;11.61;74.15;100080.88;5050379;28;49761;-70
2021/12/26 06:28:08;;;;;;;;;22.50;22.50;;;;;11.62;74.35;100082.63;5050701;28;49804;-71
2021/12/26 06:30:35;;;;;;;;;21.00;18.00;;;;;11.55;74.05;100069.44;5050539;28;49724;-75
2021/12/26 06:33:01;;;;;;;;;18.25;17.25;;;;;11.67;74.26;100082.63;5048813;28;51510;-75
2021/12/26 06:35:26;;;;;;;;;20.25;17.50;;;;;11.67;74.02;100082.63;5050953;28;49933;-71
2021/12/26 06:37:52;;;;;;;;;19.00;18.00;;;;;11.67;74.11;100080.00;5049983;28;49558;-69
2021/12/26 06:40:17;;;;;;;;;24.25;20.25;;;;;11.71;74.08;100076.53;5050247;28;49682;-69
2021/12/26 06:42:46;;;;;;;;;23.50;21.50;;;;;11.62;74.09;100068.59;5048991;28;51348;-71
2021/12/26 06:45:15;;;;;;;;;20.25;20.25;;;;;11.47;73.72;100045.72;5049638;28;49876;-75
2021/12/26 06:47:45;;;;;;;;;19.25;19.25;;;;;11.60;73.74;100062.47;5049786;28;49808;-73
2021/12/26 06:50:10;;;;;;;;;18.00;18.00;;;;;11.72;73.31;100080.91;5050534;28;49921;-76
2021/12/26 06:52:36;;;;;;;;;24.50;19.50;;;;;11.60;73.83;100068.59;5050024;28;49731;-70
2021/12/26 06:55:02;;;;;;;;;22.25;20.25;;;;;11.67;73.96;100074.75;5050307;28;49772;-70
2021/12/26 06:57:27;;;;;;;;;18.25;17.75;;;;;11.55;73.97;100051.91;5048351;28;49934;-69
2021/12/26 06:59:53;;;;;;;;;18.25;15.75;;;;;11.71;74.34;100084.44;5050497;28;49798;-69
2021/12/26 07:02:18;;;;;;;;;22.50;16.75;;;;;11.16;74.09;99985.09;5050360;28;50828;-69
2021/12/26 07:04:43;;;;;;;;;19.25;15.50;;;;;11.71;74.11;100084.44;5049981;28;49881;-69
2021/12/26 07:07:09;;;;;;;;;19.00;17.50;;;;;11.35;73.81;100012.38;5048557;28;50137;-71
2021/12/26 07:09:34;;;;;;;;;21.00;19.00;;;;;11.62;73.83;100072.09;5049035;28;49661;-70
2021/12/26 07:12:00;;;;;;;;;16.75;12.75;;;;;11.24;73.76;100008.81;5049484;28;49708;-72
2021/12/26 07:14:25;;;;;;;;;17.25;15.50;;;;;11.69;73.89;100073.91;5048402;28;49706;-71
2021/12/26 07:16:50;;;;;;;;;18.00;16.50;;;;;11.30;73.71;100045.63;5049818;28;49556;-69
2021/12/26 07:19:16;;;;;;;;;15.75;14.25;;;;;11.69;74.12;100083.53;5050347;28;49864;-72
2021/12/26 07:21:42;;;;;;;;;17.75;15.25;;;;;11.40;74.30;100028.19;5048641;28;50675;-70
2021/12/26 07:24:07;;;;;;;;;15.75;14.50;;;;;11.71;74.04;100081.78;5047950;28;49668;-70
2021/12/26 07:26:33;;;;;;;;;17.00;16.50;;;;;11.68;74.08;100076.53;5049334;28;49681;-69
2021/12/26 07:28:59;;;;;;;;;20.25;17.00;;;;;11.35;73.99;100028.13;5049542;28;50023;-75
2021/12/26 07:31:25;;;;;;;;;16.00;13.25;;;;;11.75;73.92;100086.19;5049548;28;50364;-69
2021/12/26 07:33:50;;;;;;;;;17.00;17.00;;;;;11.66;73.93;100079.13;5049731;28;49669;-72
2021/12/26 07:36:16;;;;;;;;;15.50;13.00;;;;;11.78;73.89;100094.13;5050156;28;49913;-69
2021/12/26 07:38:41;;;;;;;;;17.75;17.00;;;;;11.73;73.81;100080.03;5049669;28;49647;-70
2021/12/26 07:41:07;;;;;;;;;14.75;14.75;;;;;11.79;74.05;100095.00;5049234;28;50337;-69
2021/12/26 07:43:32;;;;;;;;;14.50;14.50;;;;;11.67;74.01;100066.84;5049455;28;49912;-71
2021/12/26 07:45:58;;;;;;;;;14.00;10.75;;;;;11.73;73.89;100085.31;5049651;28;49749;-70
2021/12/26 07:48:23;;;;;;;;;16.50;14.25;;;;;11.63;73.91;100065.97;5049595;28;49771;-73
2021/12/26 07:50:48;;;;;;;;;15.00;12.25;;;;;11.57;73.82;100049.28;5049448;28;49816;-69
2021/12/26 07:53:14;;;;;;;;;13.25;10.00;;;;;11.67;73.84;100059.84;5049783;28;49869;-68
2021/12/26 07:55:39;;;;;;;;;14.25;12.00;;;;;11.79;73.92;100077.47;5049241;28;49831;-70
2021/12/26 07:58:05;;;;;;;;;17.25;16.25;;;;;11.83;73.56;100091.53;5051853;28;49861;-70
2021/12/26 08:00:31;;;;;;;;;17.50;11.50;;;;;11.76;74.17;100082.69;5052621;28;49869;-69
2021/12/26 08:02:58;;;;;;;;;17.75;12.50;;;;;11.83;73.93;100107.31;5052761;28;49788;-69
2021/12/26 08:05:24;;;;;;;;;12.50;11.50;;;;;11.83;74.28;100100.28;5053002;28;49785;-69
2021/12/26 08:07:49;;;;;;;;;13.00;13.00;;;;;11.33;74.10;100023.75;5053276;28;49816;-72
2021/12/26 08:10:15;;;;;;;;;12.00;10.50;;;;;11.53;73.97;100056.28;5052563;28;50459;-72
2021/12/26 08:12:40;;;;;;;;;12.00;11.00;;;;;11.85;74.06;100110.81;5052954;28;49971;-69
2021/12/26 08:15:06;;;;;;;;;12.50;11.75;;;;;11.86;74.34;100100.28;5052912;28;49940;-69
2021/12/26 08:17:31;;;;;;;;;15.00;13.25;;;;;11.89;74.06;100104.72;5052908;28;49700;-69
2021/12/26 08:19:57;;;;;;;;;17.00;16.75;;;;;11.68;74.05;100066.00;5052618;28;50535;-69
2021/12/26 08:22:24;;;;;;;;;19.00;13.25;;;;;11.92;74.02;100108.22;5052564;28;49835;-72
2021/12/26 08:24:49;;;;;;;;;16.75;13.00;;;;;11.92;74.13;100107.34;5052841;28;49896;-70
2021/12/26 08:27:14;;;;;;;;;15.25;12.75;;;;;11.89;74.31;100102.09;5052262;28;49839;-71
2021/12/26 08:29:41;;;;;;;;;12.75;12.75;;;;;11.81;74.03;100093.28;5052215;28;51391;-75
2021/12/26 08:32:10;;;;;;;;;11.50;11.50;;;;;11.95;74.58;100107.34;5052451;28;49810;-69
2021/12/26 08:34:36;;;;;;;;;21.00;17.25;;;;;11.95;73.92;100113.50;5050794;28;49831;-71
2021/12/26 08:37:03;;;;;;;;;12.50;11.50;;;;;12.00;74.09;100119.66;5052616;28;49813;-72
2021/12/26 08:39:31;;;;;;;;;13.75;13.50;;;;;11.84;73.74;100093.28;5052003;28;49835;-74
2021/12/26 08:41:57;;;;;;;;;14.75;13.50;;;;;12.00;74.00;100111.78;5052270;28;50199;-70
2021/12/26 08:44:23;;;;;;;;;16.00;15.00;;;;;11.64;73.74;100051.94;5050917;28;49727;-71
2021/12/26 08:46:49;;;;;;;;;19.25;15.50;;;;;12.00;74.07;100106.53;5052744;28;49871;-75
2021/12/26 08:49:15;;;;;;;;;12.25;12.00;;;;;11.81;73.81;100082.75;5052222;28;50241;-70
2021/12/26 08:51:42;;;;;;;;;13.00;12.25;;;;;11.86;73.89;100086.28;5052199;28;49798;-70
2021/12/26 08:54:07;;;;;;;;;14.00;13.25;;;;;12.11;74.05;100137.25;5052058;28;49660;-70
2021/12/26 08:56:33;;;;;;;;;15.50;12.00;;;;;12.12;74.14;100132.00;5051974;28;50086;-70
2021/12/26 08:58:59;;;;;;;;;16.00;16.00;;;;;11.86;74.24;100084.50;5051945;28;49743;-70
2021/12/26 09:01:24;;;;;;;;;11.00;10.00;;;;;12.13;74.02;100125.84;5052031;28;49980;-74
2021/12/26 09:03:50;;;;;;;;;16.75;14.75;;;;;12.00;73.83;100114.41;5052034;28;49923;-69
2021/12/26 09:06:15;;;;;;;;;18.50;17.25;;;;;12.02;73.89;100125.81;5050807;28;50131;-73
2021/12/26 09:08:40;;;;;;;;;12.75;11.75;;;;;11.49;73.78;100025.59;5050550;28;50324;-70
2021/12/26 09:11:06;;;;;;;;;18.50;17.75;;;;;10.78;73.39;99878.97;5051498;28;49788;-71
2021/12/26 09:13:33;;;;;;;;;15.00;14.75;;;;;12.03;74.04;100101.25;5051858;28;49639;-76
2021/12/26 09:16:01;;;;;;;;;16.50;14.75;;;;;11.08;73.96;99946.53;5051753;28;49748;-72
2021/12/26 09:18:26;;;;;;;;;11.75;11.75;;;;;11.16;73.43;99960.59;5051589;28;50714;-76
2021/12/26 09:20:52;;;;;;;;;12.25;12.25;;;;;12.19;73.99;100127.66;5051566;28;49741;-73
2021/12/26 09:23:17;;;;;;;;;14.50;14.00;;;;;10.79;74.17;99904.34;5051510;28;49597;-68
2021/12/26 09:25:43;;;;;;;;;14.00;12.00;;;;;11.52;73.77;100032.63;5051412;28;49815;-70
2021/12/26 09:28:09;;;;;;;;;14.75;12.50;;;;;11.47;73.24;100007.16;5051167;28;50852;-75
2021/12/26 09:30:35;;;;;;;;;14.75;13.25;;;;;11.55;73.71;100038.75;5051195;28;49731;-75
2021/12/26 09:33:00;;;;;;;;;14.00;11.00;;;;;11.62;73.94;100022.16;5051446;28;49601;-70
2021/12/26 09:35:26;;;;;;;;;16.00;14.00;;;;;12.49;73.32;100161.97;5051410;28;49839;-70
2021/12/26 09:37:51;;;;;;;;;13.75;13.75;;;;;12.32;73.33;100154.00;5051404;28;49944;-77
2021/12/26 09:40:17;;;;;;;;;16.00;12.00;;;;;12.54;73.49;100160.22;5050263;28;49930;-74
2021/12/26 09:42:44;;;;;;;;;12.75;11.75;;;;;12.30;73.26;100124.19;5051498;28;49810;-76
2021/12/26 09:45:10;;;;;;;;;11.25;11.25;;;;;12.42;73.25;100136.50;5052228;28;49872;-77
2021/12/26 09:47:37;;;;;;;;;13.00;12.50;;;;;12.50;73.20;100153.19;5051440;28;50713;-70
2021/12/26 09:50:03;;;;;;;;;12.75;12.75;;;;;11.90;73.07;100072.28;5051076;28;49803;-72
2021/12/26 09:52:29;;;;;;;;;13.25;11.50;;;;;12.04;73.15;100088.97;5051120;28;49668;-69
2021/12/26 09:54:54;;;;;;;;;13.50;12.50;;;;;12.57;72.93;100167.28;5051362;28;49664;-72
2021/12/26 09:57:20;;;;;;;;;12.75;12.00;;;;;12.69;72.77;100167.31;5050648;28;50943;-70
2021/12/26 09:59:48;;;;;;;;;17.00;13.00;;;;;11.83;72.80;100003.00;5051099;28;49640;-74
2021/12/26 10:02:16;;;;;;;;;14.00;13.50;;;;;12.34;72.84;100114.53;5051072;28;49807;-72
2021/12/26 10:04:43;;;;;;;;;14.00;11.50;;;;;12.09;72.25;100073.25;5051003;28;49822;-71
2021/12/26 10:07:14;;;;;;;;;13.00;10.75;;;;;12.51;72.39;100125.13;5050529;28;49834;-68
2021/12/26 10:09:42;;;;;;;;;10.75;9.25;;;;;12.71;72.77;100160.28;5050862;28;49691;-73
2021/12/26 10:12:08;;;;;;;;;12.00;12.00;;;;;12.64;72.64;100136.56;5049246;28;49875;-74
2021/12/26 10:14:38;;;;;;;;;12.00;11.25;;;;;11.44;72.43;99945.84;5051067;28;49990;-73
2021/12/26 10:17:08;;;;;;;;;9.75;9.25;;;;;12.82;72.92;100160.28;5050604;28;49752;-73
2021/12/26 10:19:36;;;;;;;;;13.50;13.25;;;;;11.68;72.46;99976.63;5050658;28;49670;-74
2021/12/26 10:22:03;;;;;;;;;13.00;11.25;;;;;11.92;72.28;99984.59;5050721;28;49684;-74
2021/12/26 10:24:33;;;;;;;;;10.25;9.50;;;;;12.95;72.54;100148.94;5050776;28;49766;-73
2021/12/26 10:27:07;;;;;;;;;11.75;11.00;;;;;12.96;72.41;100140.16;5050165;28;50513;-71
2021/12/26 10:29:38;;;;;;;;;10.75;10.25;;;;;12.99;72.02;100142.78;5044033;28;49995;-70
2021/12/26 10:32:14;;;;;;;;;11.50;11.50;;;;;12.88;71.67;100128.72;5045954;28;49798;-69
2021/12/26 10:34:53;;;;;;;;;11.75;11.75;;;;;13.01;72.18;100146.28;5040212;28;50021;-74
2021/12/26 10:37:30;;;;;;;;;12.50;11.00;;;;;11.72;72.28;99929.28;5030188;28;49745;-70
2021/12/26 10:40:00;;;;;;;;;12.50;12.00;;;;;12.84;72.10;100113.78;5037322;28;49689;-68
2021/12/26 10:42:28;;;;;;;;;10.75;10.25;;;;;12.37;72.48;100037.34;5038957;28;49646;-70
2021/12/26 10:45:03;;;;;;;;;12.00;11.25;;;;;13.02;72.41;100132.22;5045994;28;49811;-72
2021/12/26 10:47:32;;;;;;;;;10.75;9.75;;;;;12.75;72.11;100092.72;5049176;28;49966;-71
2021/12/26 10:50:08;;;;;;;;;14.00;12.00;;;;;13.02;72.48;100134.84;5048760;28;49772;-68
2021/12/26 10:52:37;;;;;;;;;10.75;8.75;;;;;13.01;72.35;100151.56;5050261;28;49986;-68
2021/12/26 10:55:07;;;;;;;;;14.00;11.50;;;;;13.03;72.25;100127.88;5048838;28;50053;-69
2021/12/26 10:57:42;;;;;;;;;14.00;10.75;;;;;13.02;72.51;100134.84;5049651;28;49760;-68
2021/12/26 11:00:20;;;;;;;;;15.00;14.50;;;;;13.02;72.29;100131.34;5037000;28;49694;-71
2021/12/26 11:03:01;;;;;;;;;12.75;12.00;;;;;11.49;72.74;99895.94;5050116;28;49796;-67
2021/12/26 11:05:35;;;;;;;;;10.25;10.25;;;;;12.92;72.83;100121.69;5050273;28;50215;-68
2021/12/26 11:08:06;;;;;;;;;12.75;12.00;;;;;11.90;72.94;99996.00;5049918;28;49838;-71
2021/12/26 11:10:37;;;;;;;;;10.50;9.25;;;;;12.84;73.53;100124.31;5050053;28;49647;-72
2021/12/26 11:13:05;;;;;;;;;13.50;12.75;;;;;12.82;73.62;100128.69;5050114;28;49786;-66
2021/12/26 11:15:37;;;;;;;;;10.00;10.00;;;;;12.58;73.87;100093.56;5050151;28;49935;-67
2021/12/26 11:18:06;;;;;;;;;9.50;8.25;;;;;12.77;74.14;100123.44;5049648;28;50241;-70